TimePDT,TemperatureF,Dew PointF,Humidity,Sea Level PressureIn,VisibilityMPH,Wind Direction,Wind SpeedMPH,Gust SpeedMPH,PrecipitationIn,Events,Conditions,WindDirDegrees,DateUTC
12:53 AM,64.0,39.0,40,29.93,10.0,West,9.2,-,N/A,,Clear,260,2013-03-15 07:53:00
1:53 AM,64.9,37.0,36,29.92,10.0,WSW,5.8,-,N/A,,Clear,250,2013-03-15 08:53:00
2:53 AM,63.0,37.0,38,29.90,10.0,West,6.9,-,N/A,,Clear,260,2013-03-15 09:53:00
3:53 AM,61.0,37.9,42,29.88,10.0,SW,3.5,-,N/A,,Clear,230,2013-03-15 10:53:00
4:53 AM,60.1,37.9,44,29.89,10.0,West,4.6,-,N/A,,Clear,260,2013-03-15 11:53:00
5:53 AM,60.1,35.1,39,29.90,10.0,WSW,5.8,-,N/A,,Clear,240,2013-03-15 12:53:00
6:53 AM,59.0,37.0,44,29.90,10.0,WSW,5.8,-,N/A,,Clear,240,2013-03-15 13:53:00
7:53 AM,64.0,35.1,34,29.91,10.0,Calm,Calm,-,N/A,,Clear,0,2013-03-15 14:53:00
8:53 AM,71.1,44.1,38,29.92,10.0,West,3.5,-,N/A,,Clear,260,2013-03-15 15:53:00
9:53 AM,79.0,45.0,30,29.93,10.0,Calm,Calm,-,N/A,,Clear,0,2013-03-15 16:53:00
10:53 AM,84.9,41.0,21,29.93,10.0,WNW,3.5,-,N/A,,Clear,290,2013-03-15 17:53:00
11:53 AM,88.0,42.1,20,29.92,10.0,East,3.5,-,N/A,,Clear,90,2013-03-15 18:53:00
12:53 PM,89.1,46.9,23,29.90,10.0,Variable,4.6,-,N/A,,Clear,0,2013-03-15 19:53:00
1:53 PM,91.0,45.0,20,29.86,10.0,East,3.5,-,N/A,,Clear,100,2013-03-15 20:53:00
2:53 PM,93.9,37.0,14,29.83,10.0,ESE,8.1,-,N/A,,Clear,120,2013-03-15 21:53:00
3:53 PM,93.9,37.0,14,29.81,10.0,SE,8.1,-,N/A,,Clear,140,2013-03-15 22:53:00
4:53 PM,95.0,34.0,12,29.79,10.0,SE,11.5,-,N/A,,Clear,140,2013-03-15 23:53:00
5:53 PM,93.0,39.9,16,29.78,10.0,SE,11.5,-,N/A,,Clear,130,2013-03-16 00:53:00
6:53 PM,88.0,37.9,17,29.78,10.0,SE,5.8,-,N/A,,Clear,140,2013-03-16 01:53:00
7:53 PM,79.0,48.9,35,29.79,10.0,WSW,9.2,-,N/A,,Clear,250,2013-03-16 02:53:00
8:53 PM,75.9,44.1,32,29.80,10.0,WSW,8.1,-,N/A,,Clear,240,2013-03-16 03:53:00
9:53 PM,75.0,39.0,27,29.81,10.0,WSW,10.4,-,N/A,,Clear,250,2013-03-16 04:53:00
10:53 PM,73.9,33.1,22,29.82,10.0,WNW,10.4,-,N/A,,Clear,300,2013-03-16 05:53:00
11:53 PM,70.0,28.9,22,29.81,10.0,WNW,8.1,-,N/A,,Clear,290,2013-03-16 06:53:00